Time;durP1;ratioP1;P1;durP2;ratioP2;P2;SDS_P1;SDS_P2;PMS_P1;PMS_P2;Temp;Humidity;BMP_temperature;BMP_pressure;BME280_temperature;BME280_humidity;BME280_pressure;Samples;Min_cycle;Max_cycle;Signal;HPM_P1;HPM_P2
2021/11/18 00:00:20;;;;;;;4.15;3.40;;;4.60;99.90;;;;;;5067969;28;20608;-78
2021/11/18 00:02:48;;;;;;;4.13;3.35;;;4.60;99.90;;;;;;5068041;28;20035;-78
2021/11/18 00:05:17;;;;;;;4.15;3.25;;;4.70;99.90;;;;;;5058621;28;20066;-80
2021/11/18 00:07:48;;;;;;;4.15;3.50;;;4.70;99.90;;;;;;5067596;28;20548;-77
2021/11/18 00:10:17;;;;;;;4.53;3.42;;;4.70;99.90;;;;;;5064467;28;20028;-78
2021/11/18 00:12:45;;;;;;;5.78;3.97;;;4.60;99.90;;;;;;5067584;28;20082;-78
2021/11/18 00:15:12;;;;;;;5.93;3.50;;;4.70;99.90;;;;;;5066241;28;20581;-78
2021/11/18 00:17:38;;;;;;;3.70;3.30;;;4.70;99.90;;;;;;5066704;28;20582;-79
2021/11/18 00:20:06;;;;;;;3.55;2.67;;;4.70;99.90;;;;;;5069840;28;20112;-79
2021/11/18 00:22:32;;;;;;;4.95;3.15;;;4.70;99.90;;;;;;5070421;28;20029;-80
2021/11/18 00:24:58;;;;;;;3.92;3.28;;;4.70;99.90;;;;;;5070151;28;20024;-79
2021/11/18 00:27:24;;;;;;;5.00;3.38;;;4.70;99.90;;;;;;5070372;28;20060;-79
2021/11/18 00:29:50;;;;;;;4.13;3.20;;;4.70;99.90;;;;;;5054622;28;20101;-83
2021/11/18 00:32:15;;;;;;;5.60;3.60;;;4.70;99.90;;;;;;5072545;28;20031;-77
2021/11/18 00:34:42;;;;;;;4.30;3.13;;;4.70;99.90;;;;;;5073207;28;20028;-80
2021/11/18 00:37:09;;;;;;;4.00;3.22;;;4.70;99.90;;;;;;5072914;28;20067;-77
2021/11/18 00:39:34;;;;;;;3.75;3.13;;;4.70;99.90;;;;;;5081002;28;20020;-77
2021/11/18 00:42:00;;;;;;;5.60;3.45;;;4.70;99.90;;;;;;5081660;28;20082;-77
2021/11/18 00:44:26;;;;;;;5.88;3.42;;;4.70;99.90;;;;;;5077211;28;20068;-78
2021/11/18 00:46:52;;;;;;;3.85;3.08;;;4.70;99.90;;;;;;5072570;28;20047;-79
2021/11/18 00:49:21;;;;;;;5.90;3.67;;;4.70;99.90;;;;;;5050586;28;20029;-78
2021/11/18 00:51:47;;;;;;;5.53;3.53;;;4.70;99.90;;;;;;5053705;28;20060;-77
2021/11/18 00:54:13;;;;;;;5.10;3.40;;;4.70;99.90;;;;;;5069679;28;20025;-80
2021/11/18 00:56:40;;;;;;;4.03;3.53;;;4.70;99.90;;;;;;5070309;28;20487;-78
2021/11/18 00:59:07;;;;;;;5.43;3.30;;;4.70;99.90;;;;;;5040531;28;20037;-77
2021/11/18 01:01:45;;;;;;;4.10;3.38;;;4.70;99.90;;;;;;5071014;28;20029;-77
2021/11/18 01:04:16;;;;;;;3.22;2.90;;;4.70;99.90;;;;;;5070281;28;20036;-77
2021/11/18 01:06:41;;;;;;;5.10;3.60;;;4.70;99.90;;;;;;5072080;28;20395;-78
2021/11/18 01:09:08;;;;;;;4.32;3.03;;;4.80;99.90;;;;;;5075532;28;20054;-77
2021/11/18 01:11:34;;;;;;;4.53;3.35;;;4.80;99.90;;;;;;5071243;28;20036;-78
2021/11/18 01:14:03;;;;;;;5.18;3.42;;;4.80;99.90;;;;;;5073463;28;20475;-77
2021/11/18 01:16:34;;;;;;;5.03;3.28;;;4.80;99.90;;;;;;5072462;28;20054;-78
2021/11/18 01:19:00;;;;;;;4.90;3.08;;;4.80;99.90;;;;;;5069866;28;20029;-80
2021/11/18 01:21:28;;;;;;;4.13;3.17;;;4.80;99.90;;;;;;5070255;28;20407;-81
2021/11/18 01:23:55;;;;;;;4.13;3.00;;;4.80;99.90;;;;;;5069985;28;20108;-78
2021/11/18 01:26:30;;;;;;;5.43;3.17;;;4.80;99.90;;;;;;5065637;28;20028;-77
2021/11/18 01:28:56;;;;;;;5.35;2.95;;;4.80;99.90;;;;;;5051838;28;20602;-78
2021/11/18 01:35:11;;;;;;;3.63;2.92;;;4.80;99.90;;;;;;5011697;28;20080;-87
2021/11/18 01:37:41;;;;;;;5.20;2.80;;;4.80;99.90;;;;;;4996379;28;20063;-86
2021/11/18 01:40:13;;;;;;;3.38;2.65;;;4.80;99.90;;;;;;4989429;28;20026;-87
2021/11/18 01:42:41;;;;;;;4.25;2.95;;;4.80;99.90;;;;;;4991529;28;20034;-87
2021/11/18 01:45:08;;;;;;;4.15;2.65;;;4.80;99.90;;;;;;4956194;28;20122;-86
2021/11/18 01:47:36;;;;;;;4.32;2.90;;;4.80;99.90;;;;;;4963649;28;20037;-87
2021/11/18 01:50:05;;;;;;;3.17;2.65;;;4.80;99.90;;;;;;4970755;28;20529;-86
2021/11/18 01:52:33;;;;;;;5.40;3.13;;;4.80;99.90;;;;;;4989890;28;20035;-86
2021/11/18 01:54:59;;;;;;;3.22;2.58;;;4.80;99.90;;;;;;4958247;28;20508;-87
2021/11/18 01:57:27;;;;;;;3.75;2.83;;;4.80;99.90;;;;;;4962201;28;20045;-87
2021/11/18 02:00:13;;;;;;;5.22;3.22;;;4.80;99.90;;;;;;4968698;28;20442;-87
2021/11/18 02:02:43;;;;;;;4.30;2.95;;;4.80;99.90;;;;;;4975119;28;20515;-87
2021/11/18 02:05:23;;;;;;;5.45;2.72;;;4.80;99.90;;;;;;4995451;28;20615;-87
2021/11/18 02:07:53;;;;;;;3.67;2.63;;;4.80;99.90;;;;;;4992368;28;20049;-87
2021/11/18 02:10:29;;;;;;;5.00;3.03;;;4.80;99.90;;;;;;4978225;28;20543;-86
2021/11/18 02:12:58;;;;;;;3.38;2.75;;;4.80;99.90;;;;;;4972378;28;20604;-87
2021/11/18 02:15:35;;;;;;;4.05;3.40;;;4.80;99.90;;;;;;4988483;28;20066;-87
2021/11/18 02:18:10;;;;;;;5.80;3.60;;;4.80;99.90;;;;;;4975583;28;20030;-86
2021/11/18 02:20:36;;;;;;;4.03;3.10;;;4.80;99.90;;;;;;4978083;28;20026;-86
2021/11/18 02:23:38;;;;;;;4.25;2.97;;;4.80;99.90;;;;;;4992925;28;20036;-86
2021/11/18 02:26:05;;;;;;;4.78;2.53;;;4.80;99.90;;;;;;4969079;28;20035;-87
2021/11/18 02:28:34;;;;;;;4.47;2.95;;;4.80;99.90;;;;;;4974973;28;20085;-87
2021/11/18 02:31:03;;;;;;;3.42;2.80;;;4.80;99.90;;;;;;5001398;28;20118;-87
2021/11/18 02:33:34;;;;;;;4.80;2.78;;;4.80;99.90;;;;;;4974253;28;20057;-86
2021/11/18 02:35:59;;;;;;;5.97;3.28;;;4.80;99.90;;;;;;4991630;28;20122;-86
2021/11/18 02:38:25;;;;;;;5.32;3.30;;;4.80;99.90;;;;;;4959199;28;20121;-87
2021/11/18 02:40:57;;;;;;;4.13;3.25;;;4.80;99.90;;;;;;4955718;28;20038;-86
2021/11/18 02:43:22;;;;;;;4.85;2.72;;;4.80;99.90;;;;;;4958104;28;20539;-86
2021/11/18 02:45:50;;;;;;;4.63;3.08;;;4.90;99.90;;;;;;4965874;28;20035;-87
2021/11/18 02:48:19;;;;;;;4.03;2.90;;;4.90;99.90;;;;;;4974801;28;20033;-86
2021/11/18 02:50:49;;;;;;;3.80;2.72;;;4.90;99.90;;;;;;4981218;28;20027;-86
2021/11/18 02:53:17;;;;;;;4.88;3.00;;;4.90;99.90;;;;;;4990684;28;20117;-87
2021/11/18 02:55:47;;;;;;;4.25;3.00;;;4.90;99.90;;;;;;4974336;28;20034;-87
2021/11/18 02:58:14;;;;;;;4.85;3.72;;;4.90;99.90;;;;;;4990582;28;20651;-87
2021/11/18 03:00:55;;;;;;;5.15;3.13;;;4.90;99.90;;;;;;5005539;28;20034;-86
2021/11/18 03:03:24;;;;;;;3.53;3.08;;;4.90;99.90;;;;;;4982498;28;20038;-86
2021/11/18 03:05:52;;;;;;;4.03;2.92;;;4.90;99.90;;;;;;4990650;28;20121;-87
2021/11/18 03:08:18;;;;;;;3.83;3.00;;;4.90;99.90;;;;;;4990465;28;20038;-86
2021/11/18 03:10:45;;;;;;;4.10;2.83;;;4.90;99.90;;;;;;4972469;28;20069;-86
2021/11/18 03:13:11;;;;;;;4.57;3.45;;;4.90;99.90;;;;;;4986856;28;20058;-86
2021/11/18 03:15:37;;;;;;;5.38;2.97;;;4.90;99.90;;;;;;4997450;28;20039;-87
2021/11/18 03:18:04;;;;;;;3.08;2.60;;;4.90;99.90;;;;;;4958727;28;20109;-86
2021/11/18 03:20:37;;;;;;;4.32;2.97;;;4.90;99.90;;;;;;4979502;28;20043;-86
2021/11/18 03:23:03;;;;;;;5.22;3.00;;;4.90;99.90;;;;;;4971851;28;20129;-86
2021/11/18 03:25:33;;;;;;;4.28;3.10;;;4.90;99.90;;;;;;4990317;28;20030;-86
2021/11/18 03:28:08;;;;;;;5.25;2.95;;;5.00;99.90;;;;;;4960293;28;20035;-86
2021/11/18 03:30:38;;;;;;;5.05;3.00;;;5.00;99.90;;;;;;4973541;28;20157;-86
2021/11/18 03:33:14;;;;;;;4.15;3.00;;;5.00;99.90;;;;;;4993332;28;20527;-86
2021/11/18 03:35:40;;;;;;;3.72;3.03;;;5.00;99.90;;;;;;4990482;28;20072;-86
2021/11/18 03:38:08;;;;;;;4.97;3.50;;;5.00;99.90;;;;;;4990370;28;20190;-87
2021/11/18 03:40:35;;;;;;;3.72;2.65;;;5.00;99.90;;;;;;4984287;28;20389;-86
2021/11/18 03:43:05;;;;;;;3.85;2.97;;;5.00;99.90;;;;;;4958738;28;20034;-87
2021/11/18 03:45:32;;;;;;;4.40;2.97;;;5.00;99.90;;;;;;4975584;28;20031;-86
2021/11/18 03:47:58;;;;;;;5.60;2.88;;;5.00;99.90;;;;;;4990332;28;20092;-87
2021/11/18 03:50:25;;;;;;;3.65;3.20;;;5.00;99.90;;;;;;5005857;28;20027;-87
2021/11/18 03:52:52;;;;;;;3.80;2.72;;;5.00;99.90;;;;;;4957826;28;20089;-87
2021/11/18 03:55:19;;;;;;;3.67;2.70;;;5.00;99.90;;;;;;4992555;28;20038;-86
2021/11/18 03:57:48;;;;;;;5.15;2.80;;;5.00;99.90;;;;;;4978430;28;20059;-87
2021/11/18 04:00:28;;;;;;;3.90;2.75;;;5.00;99.90;;;;;;4958541;28;20113;-87
2021/11/18 04:02:55;;;;;;;3.95;2.75;;;5.10;99.90;;;;;;4973045;28;20408;-86
2021/11/18 04:05:47;;;;;;;4.50;2.75;;;5.10;99.90;;;;;;5006991;28;20546;-87
2021/11/18 04:08:12;;;;;;;3.65;2.90;;;5.10;99.90;;;;;;4978231;28;20038;-87
2021/11/18 04:10:41;;;;;;;3.47;2.70;;;5.10;99.90;;;;;;4993416;28;20034;-87
2021/11/18 04:13:07;;;;;;;3.58;3.05;;;5.10;99.90;;;;;;4978461;28;20489;-86
2021/11/18 04:15:34;;;;;;;3.70;2.95;;;5.00;99.90;;;;;;4975838;28;20039;-87
2021/11/18 04:18:01;;;;;;;4.82;3.08;;;5.10;99.90;;;;;;4997543;23;20042;-79
2021/11/18 04:20:33;;;;;;;3.67;2.60;;;5.10;99.90;;;;;;5009748;28;20411;-78
2021/11/18 04:23:01;;;;;;;4.07;3.15;;;5.00;99.90;;;;;;5022549;28;20045;-78
2021/11/18 04:25:32;;;;;;;3.72;2.80;;;5.10;99.90;;;;;;5007366;28;20034;-79
2021/11/18 04:27:59;;;;;;;3.88;2.80;;;5.00;99.90;;;;;;4982256;28;20034;-79
2021/11/18 04:30:35;;;;;;;4.28;3.03;;;5.10;99.90;;;;;;5010040;28;20426;-78
2021/11/18 04:33:32;;;;;;;3.97;2.80;;;5.10;99.90;;;;;;4999644;28;20034;-78
2021/11/18 04:35:59;;;;;;;4.35;2.97;;;5.00;99.90;;;;;;5005363;28;20117;-79
2021/11/18 04:38:27;;;;;;;4.57;3.17;;;5.10;99.90;;;;;;4977979;28;20142;-78
2021/11/18 04:40:53;;;;;;;3.97;3.03;;;5.00;99.90;;;;;;5000973;28;20118;-78
2021/11/18 04:43:20;;;;;;;3.58;2.38;;;5.10;99.90;;;;;;4971250;28;20094;-78
2021/11/18 04:45:49;;;;;;;4.30;3.05;;;5.00;99.90;;;;;;5010507;28;20022;-78
2021/11/18 04:48:15;;;;;;;3.08;2.78;;;5.00;99.90;;;;;;4993484;28;20062;-79
2021/11/18 04:50:42;;;;;;;5.50;3.53;;;5.00;99.90;;;;;;5016723;28;20509;-78
2021/11/18 04:53:08;;;;;;;3.63;3.15;;;5.10;99.90;;;;;;4990088;28;20070;-79
2021/11/18 04:55:37;;;;;;;4.15;3.05;;;5.10;99.90;;;;;;4991148;28;20065;-78
2021/11/18 04:58:04;;;;;;;4.80;2.97;;;5.10;99.90;;;;;;4997394;28;20118;-78
2021/11/18 05:00:41;;;;;;;3.22;2.88;;;5.10;99.90;;;;;;4999564;28;20533;-79
2021/11/18 05:03:08;;;;;;;3.90;2.90;;;5.00;99.90;;;;;;5001704;28;20036;-78
2021/11/18 05:05:35;;;;;;;3.42;2.83;;;5.10;99.90;;;;;;4989549;28;20050;-79
2021/11/18 05:08:01;;;;;;;3.20;2.60;;;5.00;99.90;;;;;;4998728;28;20034;-78
2021/11/18 05:10:28;;;;;;;4.00;2.78;;;5.00;99.90;;;;;;5007525;28;20023;-79
2021/11/18 05:12:55;;;;;;;3.15;2.75;;;5.10;99.90;;;;;;4988916;28;20401;-79
2021/11/18 05:15:28;;;;;;;3.88;2.70;;;5.00;99.90;;;;;;5008223;28;20093;-79
2021/11/18 05:17:54;;;;;;;3.30;2.95;;;5.10;99.90;;;;;;5006561;28;20069;-79
2021/11/18 05:20:22;;;;;;;2.85;2.30;;;5.10;99.90;;;;;;5003617;28;20058;-78
2021/11/18 05:22:49;;;;;;;3.40;2.50;;;5.10;99.90;;;;;;4991762;28;20032;-78
2021/11/18 05:25:19;;;;;;;4.28;3.08;;;5.10;99.90;;;;;;4992421;28;20031;-78
2021/11/18 05:27:44;;;;;;;3.30;2.42;;;5.10;99.90;;;;;;4998946;28;20023;-79
2021/11/18 05:30:12;;;;;;;3.63;3.13;;;5.00;99.90;;;;;;4999429;28;20041;-79
2021/11/18 05:32:40;;;;;;;4.15;2.75;;;5.00;99.90;;;;;;4983719;28;20042;-78
2021/11/18 05:35:23;;;;;;;4.03;2.63;;;5.00;99.90;;;;;;4991604;28;20031;-78
2021/11/18 05:37:49;;;;;;;4.00;3.17;;;5.00;99.90;;;;;;4979166;28;20045;-78
2021/11/18 05:40:15;;;;;;;4.50;3.38;;;5.00;99.90;;;;;;4983716;28;20130;-79
2021/11/18 05:42:41;;;;;;;3.30;2.83;;;5.00;99.90;;;;;;4992613;28;20511;-78
2021/11/18 05:45:11;;;;;;;4.45;3.08;;;5.00;99.90;;;;;;4988045;28;20066;-79
2021/11/18 05:47:44;;;;;;;3.35;2.50;;;5.00;99.90;;;;;;4971557;28;20084;-78
2021/11/18 05:50:14;;;;;;;3.72;2.83;;;5.00;99.90;;;;;;4992479;28;20027;-79
2021/11/18 05:52:42;;;;;;;3.20;2.85;;;5.00;99.90;;;;;;4979046;28;20585;-78
2021/11/18 05:55:10;;;;;;;3.78;2.92;;;5.00;99.90;;;;;;4978990;28;20049;-79
2021/11/18 05:57:35;;;;;;;4.05;2.83;;;5.00;99.90;;;;;;4980964;28;20030;-78
2021/11/18 06:00:08;;;;;;;4.43;3.22;;;5.00;99.90;;;;;;4968533;28;20030;-78
2021/11/18 06:02:44;;;;;;;4.15;3.03;;;5.00;99.90;;;;;;4994910;28;20416;-79
2021/11/18 06:05:11;;;;;;;4.00;3.08;;;5.00;99.90;;;;;;4997702;28;20031;-78
2021/11/18 06:07:37;;;;;;;5.43;3.45;;;5.00;99.90;;;;;;4985771;28;20389;-79
2021/11/18 06:10:04;;;;;;;3.83;2.83;;;5.00;99.90;;;;;;5003800;28;20035;-78
2021/11/18 06:12:30;;;;;;;3.38;3.08;;;5.00;99.90;;;;;;4996972;28;20054;-78
2021/11/18 06:14:56;;;;;;;4.30;3.40;;;5.00;99.90;;;;;;4977939;28;20393;-78
2021/11/18 06:17:22;;;;;;;4.25;3.05;;;5.00;99.90;;;;;;4975812;28;20037;-78
2021/11/18 06:19:48;;;;;;;3.72;2.95;;;5.00;99.90;;;;;;4988210;28;20038;-78
2021/11/18 06:22:14;;;;;;;4.80;3.15;;;5.00;99.90;;;;;;4986890;28;20440;-79
2021/11/18 06:25:00;;;;;;;3.22;2.83;;;5.00;99.90;;;;;;4986984;28;20101;-78
2021/11/18 06:27:27;;;;;;;4.28;2.92;;;5.00;99.90;;;;;;4982434;28;20042;-78
2021/11/18 06:29:54;;;;;;;3.58;2.85;;;5.00;99.90;;;;;;5003130;28;20045;-78
2021/11/18 06:32:20;;;;;;;4.55;3.28;;;5.00;99.90;;;;;;5006166;28;20034;-79
2021/11/18 06:34:46;;;;;;;4.22;3.10;;;5.00;99.90;;;;;;4982475;28;20030;-78
2021/11/18 06:37:14;;;;;;;2.92;2.42;;;5.00;99.90;;;;;;5002364;28;20061;-79
2021/11/18 06:39:44;;;;;;;2.78;2.17;;;5.00;99.90;;;;;;4980457;28;20031;-78
2021/11/18 06:42:11;;;;;;;3.85;3.08;;;5.00;99.90;;;;;;4982975;28;20416;-79
2021/11/18 06:44:38;;;;;;;6.25;2.67;;;5.00;99.90;;;;;;4994813;28;20496;-78
2021/11/18 06:47:05;;;;;;;3.35;2.78;;;5.00;99.90;;;;;;4999397;28;20035;-78
2021/11/18 06:49:32;;;;;;;3.05;2.75;;;5.00;99.90;;;;;;5007351;28;20065;-78
2021/11/18 06:51:58;;;;;;;2.97;2.53;;;5.00;99.90;;;;;;4988245;28;20062;-78
2021/11/18 06:54:23;;;;;;;3.05;2.70;;;5.00;99.90;;;;;;4992462;28;20034;-79
2021/11/18 06:56:49;;;;;;;3.55;2.85;;;5.00;99.90;;;;;;4996299;28;20057;-78
2021/11/18 06:59:17;;;;;;;3.22;2.70;;;5.00;99.90;;;;;;4986904;28;20189;-78
2021/11/18 07:01:43;;;;;;;3.67;2.65;;;5.00;99.90;;;;;;4982077;28;20512;-79
2021/11/18 07:04:09;;;;;;;4.68;3.10;;;5.00;99.90;;;;;;4968929;28;20195;-78
2021/11/18 07:06:38;;;;;;;3.47;2.75;;;5.00;99.90;;;;;;4975905;28;20117;-79
2021/11/18 07:09:10;;;;;;;3.80;2.72;;;5.00;99.90;;;;;;4985209;28;20027;-78
2021/11/18 07:11:41;;;;;;;3.35;2.60;;;5.00;99.90;;;;;;4980181;28;20126;-79
2021/11/18 07:14:07;;;;;;;3.45;2.58;;;5.00;99.90;;;;;;4970419;28;20495;-79
2021/11/18 07:16:33;;;;;;;3.85;2.60;;;5.00;99.90;;;;;;4991735;28;20417;-78
2021/11/18 07:19:04;;;;;;;2.72;2.50;;;5.10;99.90;;;;;;4985320;28;20073;-78
2021/11/18 07:21:32;;;;;;;3.80;2.80;;;5.10;99.90;;;;;;4979863;28;20100;-79
2021/11/18 07:24:02;;;;;;;3.20;2.75;;;5.10;99.90;;;;;;4978655;28;20031;-79
2021/11/18 07:26:31;;;;;;;3.10;2.70;;;5.10;99.90;;;;;;4994515;28;20023;-78
2021/11/18 07:28:59;;;;;;;3.25;2.47;;;5.10;99.90;;;;;;4975619;28;20030;-78
2021/11/18 07:31:25;;;;;;;4.03;3.00;;;5.20;99.90;;;;;;5006312;28;20027;-78
2021/11/18 07:33:51;;;;;;;4.45;3.15;;;5.10;99.90;;;;;;5001138;28;20496;-79
2021/11/18 07:36:17;;;;;;;3.88;3.40;;;5.20;99.90;;;;;;4971093;28;20030;-79
2021/11/18 07:38:44;;;;;;;3.42;2.78;;;5.20;99.90;;;;;;4981799;28;20041;-79
2021/11/18 07:41:10;;;;;;;4.22;3.25;;;5.20;99.90;;;;;;5002598;28;20041;-80
2021/11/18 07:43:43;;;;;;;4.95;3.55;;;5.20;99.90;;;;;;4998289;28;20041;-79
2021/11/18 07:46:35;;;;;;;3.80;3.40;;;5.30;99.90;;;;;;4981550;28;20106;-80
2021/11/18 07:49:05;;;;;;;5.15;3.80;;;5.30;99.90;;;;;;5008865;28;20040;-80
2021/11/18 07:51:38;;;;;;;4.35;3.45;;;5.30;99.90;;;;;;4998649;28;20523;-80
2021/11/18 07:54:07;;;;;;;4.60;3.35;;;5.30;99.90;;;;;;5004748;28;20058;-79
2021/11/18 07:56:33;;;;;;;6.47;4.30;;;5.30;99.90;;;;;;4980005;28;20392;-79
2021/11/18 07:58:59;;;;;;;5.93;4.05;;;5.40;99.90;;;;;;4989224;28;20106;-79
2021/11/18 08:01:26;;;;;;;4.43;3.53;;;5.40;99.90;;;;;;4999765;28;20943;-80
2021/11/18 08:03:52;;;;;;;5.28;3.67;;;5.40;99.90;;;;;;4986166;28;20040;-80
2021/11/18 08:06:24;;;;;;;4.90;4.00;;;5.50;99.90;;;;;;4973143;28;20026;-80
2021/11/18 08:08:59;;;;;;;5.05;3.78;;;5.50;99.90;;;;;;5001205;28;20401;-80
2021/11/18 08:11:38;;;;;;;4.78;3.83;;;5.50;99.90;;;;;;4991332;28;20429;-80
2021/11/18 08:14:06;;;;;;;6.00;3.80;;;5.60;99.90;;;;;;4982206;28;20026;-80
2021/11/18 08:16:33;;;;;;;4.93;3.50;;;5.60;99.90;;;;;;5002222;28;20493;-79
2021/11/18 08:19:02;;;;;;;5.63;4.22;;;5.60;99.90;;;;;;4981666;28;20035;-79
2021/11/18 08:21:28;;;;;;;5.10;4.18;;;5.60;99.90;;;;;;4988134;28;20030;-80
2021/11/18 08:23:57;;;;;;;7.75;4.38;;;5.60;99.90;;;;;;5007635;28;20485;-80
2021/11/18 08:26:26;;;;;;;5.38;3.75;;;5.60;99.90;;;;;;4987591;28;20030;-79
2021/11/18 08:28:53;;;;;;;5.80;4.50;;;5.60;99.90;;;;;;5004737;28;20026;-80
2021/11/18 08:31:19;;;;;;;4.93;4.18;;;5.70;99.90;;;;;;4969012;28;20058;-79
2021/11/18 08:34:06;;;;;;;4.68;3.67;;;5.70;99.90;;;;;;4979151;28;20034;-80
2021/11/18 08:36:34;;;;;;;4.55;3.53;;;5.80;99.90;;;;;;4977456;28;20035;-80
2021/11/18 08:39:01;;;;;;;4.90;3.88;;;5.80;99.90;;;;;;4991190;28;20086;-80
2021/11/18 08:41:26;;;;;;;6.75;4.20;;;5.80;99.90;;;;;;4984321;28;20026;-79
2021/11/18 08:43:56;;;;;;;5.88;3.92;;;5.80;99.90;;;;;;4998846;28;20161;-79
2021/11/18 08:46:23;;;;;;;5.68;3.85;;;5.90;99.90;;;;;;5004238;28;20022;-80
2021/11/18 08:48:50;;;;;;;4.15;3.70;;;5.90;99.90;;;;;;5002730;28;20415;-80
2021/11/18 08:51:21;;;;;;;5.78;4.07;;;6.00;99.90;;;;;;4997882;28;20026;-80
2021/11/18 08:53:49;;;;;;;6.53;4.25;;;6.00;99.90;;;;;;4997543;28;20034;-80
2021/11/18 08:56:17;;;;;;;4.70;3.55;;;6.10;99.90;;;;;;4985180;28;20436;-79
2021/11/18 08:58:45;;;;;;;4.18;3.70;;;6.10;99.90;;;;;;4988781;28;20057;-80
2021/11/18 09:01:22;;;;;;;4.90;4.40;;;6.10;99.90;;;;;;4978503;28;20050;-79
2021/11/18 09:03:48;;;;;;;4.22;3.80;;;6.10;99.90;;;;;;4999193;28;20026;-79
2021/11/18 09:06:19;;;;;;;5.55;3.80;;;6.10;99.90;;;;;;4990601;28;20057;-80
2021/11/18 09:08:49;;;;;;;4.55;3.63;;;6.10;99.90;;;;;;5004639;28;20030;-79
2021/11/18 09:11:18;;;;;;;4.75;4.22;;;6.10;99.90;;;;;;5009863;28;20033;-80
2021/11/18 09:13:50;;;;;;;5.10;3.92;;;6.10;99.90;;;;;;4986976;28;20076;-80
2021/11/18 09:16:17;;;;;;;6.10;3.60;;;6.10;99.90;;;;;;4980372;28;20095;-80
2021/11/18 09:18:55;;;;;;;4.28;3.38;;;6.10;99.90;;;;;;5009524;28;20161;-80
2021/11/18 09:21:23;;;;;;;6.18;4.20;;;6.10;99.90;;;;;;4990844;28;20039;-80
2021/11/18 09:24:08;;;;;;;4.95;3.60;;;6.10;99.90;;;;;;4998216;28;20030;-80
2021/11/18 09:26:37;;;;;;;5.13;3.88;;;6.10;99.90;;;;;;4970034;28;20026;-80
2021/11/18 09:29:05;;;;;;;4.50;3.22;;;6.10;99.90;;;;;;4976550;28;20034;-80
2021/11/18 09:31:56;;;;;;;4.30;3.33;;;6.20;99.90;;;;;;5002857;28;20496;-79
2021/11/18 09:34:22;;;;;;;3.78;3.33;;;6.20;99.90;;;;;;4971766;28;20441;-80
2021/11/18 09:36:50;;;;;;;5.20;3.50;;;6.20;99.90;;;;;;4973416;28;20031;-79
2021/11/18 09:39:16;;;;;;;3.55;2.85;;;6.20;99.90;;;;;;4993932;28;20030;-79
2021/11/18 09:42:06;;;;;;;3.97;3.38;;;6.30;99.90;;;;;;5001669;28;20559;-80
2021/11/18 09:44:52;;;;;;;4.30;3.47;;;6.30;99.90;;;;;;4987232;28;20122;-79
2021/11/18 09:47:48;;;;;;;4.88;3.60;;;6.40;99.90;;;;;;5005796;28;20122;-80
2021/11/18 09:50:43;;;;;;;4.15;3.50;;;6.40;99.90;;;;;;5006420;28;20035;-79
2021/11/18 09:53:48;;;;;;;4.07;3.20;;;6.40;99.90;;;;;;5006703;28;20400;-79
2021/11/18 09:56:25;;;;;;;4.90;3.85;;;6.50;99.90;;;;;;5003195;28;20030;-79
2021/11/18 09:59:14;;;;;;;5.13;3.72;;;6.50;99.90;;;;;;4995161;28;20038;-79
2021/11/18 10:02:02;;;;;;;5.85;3.65;;;6.50;99.90;;;;;;4994225;28;20066;-80
2021/11/18 10:05:07;;;;;;;5.88;4.07;;;6.60;99.90;;;;;;4999737;28;20405;-79
2021/11/18 10:07:55;;;;;;;5.22;3.85;;;6.70;99.90;;;;;;4987640;28;20041;-79
2021/11/18 10:10:37;;;;;;;4.30;3.65;;;6.70;99.90;;;;;;4976995;28;20110;-79
2021/11/18 10:13:37;;;;;;;4.45;3.55;;;6.80;99.90;;;;;;4990101;28;20555;-80
2021/11/18 10:16:26;;;;;;;4.82;3.45;;;6.80;99.90;;;;;;5000110;28;20038;-79
2021/11/18 10:19:02;;;;;;;4.55;3.60;;;6.90;99.90;;;;;;4984558;28;20030;-80
2021/11/18 10:21:38;;;;;;;7.80;4.60;;;6.90;99.90;;;;;;4982935;28;20144;-79
2021/11/18 10:24:12;;;;;;;5.22;3.78;;;7.10;99.90;;;;;;4986091;28;20118;-80
2021/11/18 10:26:44;;;;;;;4.38;3.97;;;7.10;99.90;;;;;;4977787;28;20081;-79
2021/11/18 10:29:14;;;;;;;7.80;4.60;;;7.10;99.90;;;;;;4987898;28;20034;-80
2021/11/18 10:31:52;;;;;;;5.03;4.00;;;7.10;99.90;;;;;;4989315;28;20034;-80
2021/11/18 10:34:50;;;;;;;6.55;4.32;;;7.10;99.90;;;;;;5000612;28;20034;-80
2021/11/18 10:37:19;;;;;;;5.18;3.70;;;7.20;99.90;;;;;;5002355;28;20026;-79
2021/11/18 10:40:09;;;;;;;5.68;4.25;;;7.20;99.90;;;;;;4989894;28;20026;-80
2021/11/18 10:42:43;;;;;;;5.78;4.57;;;7.20;99.90;;;;;;4985853;28;20058;-80
2021/11/18 10:45:27;;;;;;;5.60;4.15;;;7.30;99.90;;;;;;4992850;28;20034;-80
2021/11/18 10:47:58;;;;;;;6.95;4.47;;;7.30;99.90;;;;;;4992206;28;20077;-80
2021/11/18 10:50:49;;;;;;;6.80;4.40;;;7.30;99.90;;;;;;4990906;28;20476;-79
2021/11/18 10:53:20;;;;;;;5.93;3.63;;;7.40;99.90;;;;;;4993170;28;20464;-80
2021/11/18 10:55:59;;;;;;;7.70;4.70;;;7.40;99.90;;;;;;4985273;28;20052;-79
2021/11/18 10:58:25;;;;;;;6.15;4.10;;;7.50;99.90;;;;;;4987056;28;20038;-79
2021/11/18 11:01:05;;;;;;;5.75;3.78;;;7.60;99.90;;;;;;4987890;28;20365;-80
2021/11/18 11:03:40;;;;;;;7.18;4.32;;;7.60;99.90;;;;;;4987740;28;20061;-79
2021/11/18 11:06:14;;;;;;;6.95;3.70;;;7.60;99.90;;;;;;4989759;28;20035;-80
2021/11/18 11:08:44;;;;;;;7.90;4.87;;;7.50;99.90;;;;;;4998257;28;20106;-79
2021/11/18 11:11:26;;;;;;;6.25;4.30;;;7.50;99.90;;;;;;4988228;28;20448;-79
2021/11/18 11:14:14;;;;;;;5.82;4.25;;;7.40;99.90;;;;;;4999129;28;20050;-79
2021/11/18 11:17:18;;;;;;;5.13;3.83;;;7.40;99.90;;;;;;4974554;28;20042;-80
2021/11/18 11:20:28;;;;;;;6.03;3.92;;;7.30;99.90;;;;;;4992756;28;20042;-80
2021/11/18 11:23:11;;;;;;;5.25;3.33;;;7.30;99.90;;;;;;4952531;28;20035;-80
2021/11/18 11:25:55;;;;;;;8.00;3.80;;;7.20;99.90;;;;;;4968866;28;20046;-79
2021/11/18 11:28:39;;;;;;;5.88;3.70;;;7.10;99.90;;;;;;4980071;28;20038;-79
2021/11/18 11:31:28;;;;;;;5.40;3.70;;;7.10;99.90;;;;;;4985103;28;20084;-79
2021/11/18 11:34:18;;;;;;;6.97;3.90;;;7.00;99.90;;;;;;4995796;28;20033;-79
2021/11/18 11:36:57;;;;;;;5.47;3.13;;;7.10;99.90;;;;;;4999800;28;20031;-79
2021/11/18 11:39:28;;;;;;;4.68;3.17;;;7.00;99.90;;;;;;4990352;28;20026;-79
2021/11/18 11:42:31;;;;;;;5.15;3.55;;;7.00;99.90;;;;;;4992007;28;20042;-79
2021/11/18 11:45:15;;;;;;;5.43;2.95;;;7.00;99.90;;;;;;5001695;28;20053;-79
2021/11/18 11:47:59;;;;;;;4.97;3.30;;;7.00;99.90;;;;;;4988241;28;20018;-79
2021/11/18 11:50:51;;;;;;;6.93;3.30;;;7.10;99.90;;;;;;4989143;28;20065;-79
2021/11/18 11:53:30;;;;;;;5.10;3.05;;;7.10;99.90;;;;;;4990955;28;20106;-79
2021/11/18 11:56:34;;;;;;;7.78;3.85;;;7.10;99.90;;;;;;4997753;28;20093;-79
2021/11/18 11:59:30;;;;;;;5.57;3.70;;;7.10;99.90;;;;;;5007929;28;20042;-79
2021/11/18 12:02:26;;;;;;;6.18;3.38;;;7.20;99.90;;;;;;4989613;28;20070;-80
2021/11/18 12:05:01;;;;;;;6.38;3.80;;;7.20;99.90;;;;;;4985130;28;20042;-79
2021/11/18 12:07:58;;;;;;;4.65;3.30;;;7.20;99.90;;;;;;4993026;28;20904;-79
2021/11/18 12:10:42;;;;;;;5.25;3.92;;;7.30;99.90;;;;;;4986073;28;20041;-80
2021/11/18 12:13:25;;;;;;;6.90;4.40;;;7.40;99.90;;;;;;4998557;28;20650;-80
2021/11/18 12:16:02;;;;;;;7.38;4.78;;;7.50;99.90;;;;;;4990410;28;20058;-80
2021/11/18 12:18:50;;;;;;;6.50;4.78;;;7.50;99.90;;;;;;4992605;28;20077;-79
2021/11/18 12:21:18;;;;;;;6.90;4.32;;;7.50;99.90;;;;;;4993464;28;20089;-78
2021/11/18 12:24:05;;;;;;;8.10;4.65;;;7.40;99.90;;;;;;4978168;28;20031;-79
2021/11/18 12:27:07;;;;;;;7.32;4.50;;;7.40;99.90;;;;;;5007359;28;20026;-78
2021/11/18 12:29:41;;;;;;;7.28;4.80;;;7.40;99.90;;;;;;4992011;28;20060;-78
2021/11/18 12:32:27;;;;;;;6.28;4.18;;;7.40;99.90;;;;;;4985017;28;20409;-78
2021/11/18 12:35:26;;;;;;;6.93;4.38;;;7.30;99.90;;;;;;4983511;28;20058;-78
2021/11/18 12:38:16;;;;;;;5.55;4.25;;;7.30;99.90;;;;;;5008401;28;20038;-79
2021/11/18 12:41:00;;;;;;;6.95;4.63;;;7.30;99.90;;;;;;4980277;28;20066;-78
2021/11/18 12:43:48;;;;;;;7.45;4.25;;;7.30;99.90;;;;;;5007388;28;20565;-78
2021/11/18 12:46:19;;;;;;;7.68;4.63;;;7.30;99.90;;;;;;5002447;28;20039;-78
2021/11/18 12:48:51;;;;;;;5.82;4.32;;;7.30;99.90;;;;;;4994176;28;20052;-78
2021/11/18 12:51:45;;;;;;;6.38;4.40;;;7.30;99.90;;;;;;4990907;28;20038;-79
2021/11/18 12:54:13;;;;;;;6.03;4.45;;;7.30;99.90;;;;;;4989896;28;20448;-78
2021/11/18 12:57:09;;;;;;;6.85;4.85;;;7.20;99.90;;;;;;4982860;28;20027;-78
2021/11/18 12:59:39;;;;;;;6.50;4.05;;;7.20;99.90;;;;;;4980661;28;20097;-78
2021/11/18 13:02:37;;;;;;;7.95;4.13;;;7.20;99.90;;;;;;4987055;28;20034;-78
2021/11/18 13:05:08;;;;;;;6.18;3.65;;;7.20;99.90;;;;;;4989232;28;20034;-78
2021/11/18 13:08:06;;;;;;;6.85;4.32;;;7.20;99.90;;;;;;5002610;28;20124;-79
2021/11/18 13:10:40;;;;;;;7.82;4.82;;;7.20;99.90;;;;;;4995984;28;20030;-79
2021/11/18 13:13:05;;;;;;;6.07;4.30;;;7.20;99.90;;;;;;4991618;28;20044;-78
2021/11/18 13:15:43;;;;;;;7.18;4.55;;;7.20;99.90;;;;;;4993068;28;20447;-79
2021/11/18 13:18:26;;;;;;;7.35;4.05;;;7.20;99.90;;;;;;4989466;28;20034;-79
2021/11/18 13:21:18;;;;;;;7.75;4.55;;;7.20;99.90;;;;;;4988000;28;20033;-79
2021/11/18 13:23:49;;;;;;;9.82;4.88;;;7.20;99.90;;;;;;4989960;28;20034;-79
2021/11/18 13:26:30;;;;;;;11.10;5.28;;;7.20;99.90;;;;;;4989067;28;20026;-79
2021/11/18 13:29:20;;;;;;;8.10;4.75;;;7.20;99.90;;;;;;5002966;28;20126;-78
2021/11/18 13:32:04;;;;;;;7.53;4.72;;;7.20;99.90;;;;;;5005799;28;20022;-79